Time;durP1;ratioP1;P1;durP2;ratioP2;P2;SDS_P1;SDS_P2;PMS_P1;PMS_P2;Temp;Humidity;BMP_temperature;BMP_pressure;BME280_temperature;BME280_humidity;BME280_pressure;Samples;Min_cycle;Max_cycle;Signal;HPM_P1;HPM_P2
2022/11/06 00:02:21;;;;;;;6.93;2.33;;;;;;;;;;5048652;28;20224;-77
2022/11/06 00:04:46;;;;;;;7.35;2.08;;;;;;;;;;5048440;28;20039;-77
2022/11/06 00:07:11;;;;;;;12.40;2.60;;;;;;;;;;5047393;28;20027;-77
2022/11/06 00:09:37;;;;;;;5.78;2.38;;;;;;;;;;5046779;28;20048;-77
2022/11/06 00:12:02;;;;;;;8.00;2.22;;;;;;;;;;5044893;28;20048;-76
2022/11/06 00:14:28;;;;;;;3.85;1.70;;;;;;;;;;5045666;28;20041;-77
2022/11/06 00:16:53;;;;;;;5.45;2.15;;;;;;;;;;5046628;28;20043;-77
2022/11/06 00:19:18;;;;;;;7.63;2.13;;;;;;;;;;5048478;28;20103;-77
2022/11/06 00:21:44;;;;;;;3.72;1.98;;;;;;;;;;5047023;28;20047;-77
2022/11/06 00:24:12;;;;;;;3.58;1.80;;;;;;;;;;5045316;28;20468;-76
2022/11/06 00:26:38;;;;;;;6.53;1.58;;;;;;;;;;5039327;28;20048;-77
2022/11/06 00:29:04;;;;;;;5.78;2.28;;;;;;;;;;5047667;28;20029;-77
2022/11/06 00:31:34;;;;;;;5.20;2.00;;;;;;;;;;5048429;28;20037;-76
2022/11/06 00:34:00;;;;;;;5.90;1.88;;;;;;;;;;5046523;28;20048;-77
2022/11/06 00:36:29;;;;;;;3.95;2.03;;;;;;;;;;5046616;28;20060;-77
2022/11/06 00:38:55;;;;;;;3.85;1.85;;;;;;;;;;5042774;28;20613;-77
2022/11/06 00:41:22;;;;;;;4.10;1.95;;;;;;;;;;5031984;28;20114;-77
2022/11/06 00:43:52;;;;;;;5.88;2.55;;;;;;;;;;5040900;28;20507;-76
2022/11/06 00:46:18;;;;;;;7.38;2.10;;;;;;;;;;5047757;28;20045;-77
2022/11/06 00:48:44;;;;;;;4.07;1.80;;;;;;;;;;5046291;28;20059;-77
2022/11/06 00:51:18;;;;;;;7.80;2.20;;;;;;;;;;5063536;28;20037;-77
2022/11/06 00:53:44;;;;;;;3.45;2.40;;;;;;;;;;5066276;28;20044;-77
2022/11/06 00:56:19;;;;;;;4.95;1.67;;;;;;;;;;5066147;28;20119;-77
2022/11/06 00:58:46;;;;;;;6.53;2.10;;;;;;;;;;5066664;28;20043;-77
2022/11/06 01:01:14;;;;;;;5.78;2.22;;;;;;;;;;5039310;28;20685;-77
2022/11/06 01:03:42;;;;;;;6.65;2.00;;;;;;;;;;5042713;28;20446;-77
2022/11/06 01:06:16;;;;;;;3.65;1.88;;;;;;;;;;5047606;28;20043;-77
2022/11/06 01:08:42;;;;;;;4.25;2.20;;;;;;;;;;5047043;28;20033;-77
2022/11/06 01:11:17;;;;;;;8.20;2.00;;;;;;;;;;5047164;28;20036;-77
2022/11/06 01:13:44;;;;;;;4.60;1.88;;;;;;;;;;5041347;28;20028;-76
2022/11/06 01:16:12;;;;;;;4.55;1.95;;;;;;;;;;5058499;28;20111;-77
2022/11/06 01:18:39;;;;;;;2.17;1.40;;;;;;;;;;5066678;28;20620;-77
2022/11/06 01:21:18;;;;;;;11.20;2.22;;;;;;;;;;5060120;28;20543;-77
2022/11/06 01:23:44;;;;;;;5.38;2.13;;;;;;;;;;5047085;28;20037;-77
2022/11/06 01:26:11;;;;;;;5.47;2.97;;;;;;;;;;5046975;28;20039;-77
2022/11/06 01:28:37;;;;;;;3.15;1.58;;;;;;;;;;5044997;28;20086;-76
2022/11/06 01:31:05;;;;;;;6.18;1.95;;;;;;;;;;5045309;28;20510;-77
2022/11/06 01:33:30;;;;;;;5.32;1.60;;;;;;;;;;5046822;28;20067;-77
2022/11/06 01:35:56;;;;;;;5.38;1.42;;;;;;;;;;5043705;28;20569;-77
2022/11/06 01:38:21;;;;;;;3.38;1.65;;;;;;;;;;5044616;28;20033;-77
2022/11/06 01:40:47;;;;;;;5.30;2.10;;;;;;;;;;5041906;28;20127;-76
2022/11/06 01:43:19;;;;;;;5.68;2.00;;;;;;;;;;5044908;28;20406;-77
2022/11/06 01:45:53;;;;;;;5.72;1.88;;;;;;;;;;5046084;28;20095;-77
2022/11/06 01:48:23;;;;;;;4.82;2.00;;;;;;;;;;5045172;28;20041;-77
2022/11/06 01:50:54;;;;;;;2.97;1.50;;;;;;;;;;5058503;28;20086;-76
2022/11/06 01:53:20;;;;;;;5.55;2.20;;;;;;;;;;5032624;28;20764;-77
2022/11/06 01:55:50;;;;;;;6.65;2.25;;;;;;;;;;5041910;28;20551;-77
2022/11/06 01:58:18;;;;;;;3.90;1.55;;;;;;;;;;5042104;28;20021;-77
2022/11/06 02:00:44;;;;;;;7.40;2.03;;;;;;;;;;5026613;28;20061;-77
2022/11/06 02:03:11;;;;;;;3.42;1.70;;;;;;;;;;5041561;28;20127;-77
2022/11/06 02:05:37;;;;;;;3.50;1.85;;;;;;;;;;5039132;28;20037;-77
2022/11/06 02:08:03;;;;;;;5.85;2.10;;;;;;;;;;5024605;28;20044;-77
2022/11/06 02:10:29;;;;;;;6.95;2.50;;;;;;;;;;5026073;28;20075;-76
2022/11/06 02:13:06;;;;;;;3.72;1.60;;;;;;;;;;5023712;28;20032;-77
2022/11/06 02:15:55;;;;;;;3.72;1.90;;;;;;;;;;5025708;28;20042;-78
2022/11/06 02:18:43;;;;;;;5.32;1.67;;;;;;;;;;5026128;28;20030;-77
2022/11/06 02:21:23;;;;;;;5.60;1.58;;;;;;;;;;5024407;28;20522;-77
2022/11/06 02:24:22;;;;;;;5.10;1.70;;;;;;;;;;5042267;28;20040;-77
2022/11/06 02:27:22;;;;;;;9.23;2.00;;;;;;;;;;5040892;28;20043;-77
2022/11/06 02:29:57;;;;;;;8.73;2.10;;;;;;;;;;5044093;28;20063;-77
2022/11/06 02:32:31;;;;;;;4.55;1.80;;;;;;;;;;5044408;28;20067;-77
2022/11/06 02:35:00;;;;;;;4.32;1.63;;;;;;;;;;5044714;28;20049;-76
2022/11/06 02:37:31;;;;;;;2.70;1.40;;;;;;;;;;5038189;28;20045;-76
2022/11/06 02:39:59;;;;;;;6.75;2.00;;;;;;;;;;5037757;28;20688;-77
2022/11/06 02:42:27;;;;;;;4.95;1.55;;;;;;;;;;5045346;28;20036;-77
2022/11/06 02:44:55;;;;;;;4.07;1.75;;;;;;;;;;5045767;28;20075;-77
2022/11/06 02:47:23;;;;;;;6.25;2.10;;;;;;;;;;5042889;28;20140;-77
2022/11/06 02:49:53;;;;;;;3.13;1.80;;;;;;;;;;5050249;28;20123;-77
2022/11/06 02:52:28;;;;;;;3.13;2.00;;;;;;;;;;5065692;28;20033;-77
2022/11/06 02:55:04;;;;;;;5.70;1.75;;;;;;;;;;5066036;28;20052;-77
2022/11/06 02:57:34;;;;;;;4.03;1.75;;;;;;;;;;5040159;28;20522;-77
2022/11/06 03:00:05;;;;;;;2.28;1.58;;;;;;;;;;5024089;28;20041;-77
2022/11/06 03:02:54;;;;;;;4.65;1.73;;;;;;;;;;5025867;28;20041;-77
2022/11/06 03:05:33;;;;;;;3.88;1.88;;;;;;;;;;5028424;28;20037;-77
2022/11/06 03:08:08;;;;;;;6.07;2.00;;;;;;;;;;5044416;28;20033;-77
2022/11/06 03:10:42;;;;;;;8.50;3.17;;;;;;;;;;5044208;28;20025;-76
2022/11/06 03:13:15;;;;;;;2.97;1.30;;;;;;;;;;5027853;28;20089;-77
2022/11/06 03:16:10;;;;;;;;;;;;;;;;;;5044653;28;20048;-77
2022/11/06 03:18:43;;;;;;;2.88;1.70;;;;;;;;;;5038909;28;19912;-77
2022/11/06 03:21:49;;;;;;;3.47;1.38;;;;;;;;;;5041327;28;20529;-76
2022/11/06 03:24:31;;;;;;;3.80;1.70;;;;;;;;;;5025461;28;20478;-77
2022/11/06 03:26:59;;;;;;;3.40;1.50;;;;;;;;;;5035977;28;20029;-76
2022/11/06 03:29:35;;;;;;;4.18;1.73;;;;;;;;;;5043650;28;20036;-77
2022/11/06 03:32:13;;;;;;;11.32;2.28;;;;;;;;;;5045326;28;20037;-77
2022/11/06 03:34:47;;;;;;;4.85;1.80;;;;;;;;;;5049045;28;20060;-77
2022/11/06 03:37:18;;;;;;;2.42;1.40;;;;;;;;;;5029654;28;20033;-77
2022/11/06 03:39:53;;;;;;;7.45;1.70;;;;;;;;;;5040100;28;20063;-77
2022/11/06 03:42:24;;;;;;;5.85;1.48;;;;;;;;;;5049340;28;20126;-77
2022/11/06 03:44:55;;;;;;;4.28;1.65;;;;;;;;;;5049125;28;20068;-77
2022/11/06 03:47:25;;;;;;;6.03;1.70;;;;;;;;;;5046867;28;20403;-77
2022/11/06 03:50:20;;;;;;;3.35;1.52;;;;;;;;;;5049086;28;20040;-77
2022/11/06 03:52:57;;;;;;;7.35;2.00;;;;;;;;;;5053992;28;20178;-77
2022/11/06 03:55:30;;;;;;;5.60;1.55;;;;;;;;;;5068161;28;20036;-77
2022/11/06 03:57:57;;;;;;;;;;;;;;;;;;5069050;28;20041;-78
2022/11/06 04:00:23;;;;;;;4.43;1.92;;;;;;;;;;5068911;28;19927;-76
2022/11/06 04:03:03;;;;;;;4.60;1.60;;;;;;;;;;5068985;28;20107;-77
2022/11/06 04:05:36;;;;;;;5.70;1.80;;;;;;;;;;5068663;28;20510;-77
2022/11/06 04:13:56;;;;;;;3.67;1.70;;;;;;;;;;5048832;28;20031;-77
2022/11/06 04:16:23;;;;;;;2.45;1.55;;;;;;;;;;5047696;28;20017;-77
2022/11/06 04:18:48;;;;;;;4.55;1.95;;;;;;;;;;5046806;28;20043;-77
2022/11/06 04:21:29;;;;;;;4.35;1.70;;;;;;;;;;5045392;28;20033;-78
2022/11/06 04:27:11;;;;;;;6.00;1.93;;;;;;;;;;5048201;28;20048;-77
2022/11/06 04:29:53;;;;;;;4.57;1.58;;;;;;;;;;5048105;28;20120;-77
2022/11/06 04:32:21;;;;;;;1.75;1.20;;;;;;;;;;5046571;28;20458;-77
2022/11/06 04:34:58;;;;;;;4.72;2.03;;;;;;;;;;5048720;28;20133;-77
2022/11/06 04:37:39;;;;;;;8.75;1.90;;;;;;;;;;5046974;28;20032;-77
2022/11/06 04:40:21;;;;;;;6.00;2.20;;;;;;;;;;5046614;28;20118;-77
2022/11/06 04:42:57;;;;;;;8.18;2.17;;;;;;;;;;5048012;28;20145;-77
2022/11/06 04:45:35;;;;;;;5.18;2.00;;;;;;;;;;5043078;28;20045;-77
2022/11/06 04:48:03;;;;;;;3.22;1.70;;;;;;;;;;5043766;28;20083;-77
2022/11/06 04:50:32;;;;;;;2.08;1.25;;;;;;;;;;5057760;28;20445;-77
2022/11/06 04:52:59;;;;;;;4.82;1.90;;;;;;;;;;5067305;28;20402;-77
2022/11/06 04:55:24;;;;;;;3.97;1.52;;;;;;;;;;5068087;28;20111;-77
2022/11/06 04:57:50;;;;;;;3.53;1.70;;;;;;;;;;5061244;28;20112;-76
2022/11/06 05:00:16;;;;;;;4.07;1.33;;;;;;;;;;5042110;28;20029;-76
2022/11/06 05:02:41;;;;;;;5.03;2.35;;;;;;;;;;5043059;28;20025;-77
2022/11/06 05:05:07;;;;;;;7.53;2.75;;;;;;;;;;5045716;28;20036;-77
2022/11/06 05:07:33;;;;;;;16.20;4.90;;;;;;;;;;5045690;28;20136;-77
2022/11/06 05:09:58;;;;;;;9.10;3.47;;;;;;;;;;5046537;28;20186;-77
2022/11/06 05:12:24;;;;;;;7.13;2.55;;;;;;;;;;5045751;28;20051;-77
2022/11/06 05:14:49;;;;;;;10.15;2.90;;;;;;;;;;5045862;28;20041;-76
2022/11/06 05:17:15;;;;;;;8.10;2.20;;;;;;;;;;5044890;28;20032;-77
2022/11/06 05:19:40;;;;;;;5.22;2.30;;;;;;;;;;5046752;28;20399;-77
2022/11/06 05:24:49;;;;;;;6.95;2.25;;;;;;;;;;5047602;28;20040;-77
2022/11/06 05:27:15;;;;;;;7.18;2.70;;;;;;;;;;5046609;28;20033;-78
2022/11/06 05:29:40;;;;;;;9.60;2.53;;;;;;;;;;5046961;28;20588;-77
2022/11/06 05:32:05;;;;;;;3.10;1.60;;;;;;;;;;5045793;28;20566;-77
2022/11/06 05:34:31;;;;;;;2.38;1.58;;;;;;;;;;5045400;28;20028;-77
2022/11/06 05:36:56;;;;;;;2.75;1.45;;;;;;;;;;5047379;28;20060;-77
2022/11/06 05:39:22;;;;;;;6.85;1.90;;;;;;;;;;5039610;28;20025;-77
2022/11/06 05:41:47;;;;;;;3.67;1.80;;;;;;;;;;5035800;28;20060;-76
2022/11/06 05:44:12;;;;;;;4.03;1.40;;;;;;;;;;5042743;28;20515;-77
2022/11/06 05:46:38;;;;;;;5.72;2.00;;;;;;;;;;5046752;28;20044;-77
2022/11/06 05:49:03;;;;;;;1.52;1.20;;;;;;;;;;5044943;28;20017;-76
2022/11/06 05:51:28;;;;;;;3.80;2.20;;;;;;;;;;5063243;28;20033;-77
2022/11/06 05:53:54;;;;;;;3.92;1.60;;;;;;;;;;5066973;28;20059;-77
2022/11/06 05:56:19;;;;;;;3.97;1.98;;;;;;;;;;5064522;28;20497;-77
2022/11/06 05:58:44;;;;;;;2.15;1.33;;;;;;;;;;5047252;28;20540;-77
2022/11/06 06:01:11;;;;;;;2.88;1.70;;;;;;;;;;5027396;28;20479;-77
2022/11/06 06:03:36;;;;;;;2.65;1.50;;;;;;;;;;5026892;28;20680;-77
2022/11/06 06:06:01;;;;;;;3.80;1.90;;;;;;;;;;5041494;28;20126;-77
2022/11/06 06:08:27;;;;;;;6.05;1.88;;;;;;;;;;5025705;28;20163;-76
2022/11/06 06:10:52;;;;;;;6.28;2.00;;;;;;;;;;5026674;28;20056;-77
2022/11/06 06:13:17;;;;;;;7.70;1.88;;;;;;;;;;5042488;28;20104;-77
2022/11/06 06:15:43;;;;;;;4.80;1.73;;;;;;;;;;5045242;28;20033;-77
2022/11/06 06:18:09;;;;;;;5.47;1.63;;;;;;;;;;5045770;28;20127;-77
2022/11/06 06:20:35;;;;;;;3.63;1.88;;;;;;;;;;5044880;28;20057;-77
2022/11/06 06:23:00;;;;;;;3.35;1.42;;;;;;;;;;5044849;28;20052;-77
2022/11/06 06:25:27;;;;;;;6.32;1.98;;;;;;;;;;5044715;28;20696;-77
2022/11/06 06:27:53;;;;;;;4.30;1.70;;;;;;;;;;5046651;28;20029;-77
2022/11/06 06:30:19;;;;;;;4.22;1.85;;;;;;;;;;5045411;28;20052;-77
2022/11/06 06:32:44;;;;;;;3.78;1.95;;;;;;;;;;5044541;28;20102;-77
2022/11/06 06:35:10;;;;;;;5.57;1.98;;;;;;;;;;5044812;28;20025;-77
2022/11/06 06:37:36;;;;;;;5.30;1.90;;;;;;;;;;5038781;28;20105;-77
2022/11/06 06:40:01;;;;;;;3.13;1.55;;;;;;;;;;5037503;28;20025;-77
2022/11/06 06:42:27;;;;;;;3.80;1.23;;;;;;;;;;5045643;28;20116;-77
2022/11/06 06:44:53;;;;;;;6.00;2.25;;;;;;;;;;5045536;28;20533;-77
2022/11/06 06:47:18;;;;;;;4.47;1.77;;;;;;;;;;5045446;28;20037;-77
2022/11/06 06:49:44;;;;;;;8.55;1.40;;;;;;;;;;5045507;28;20096;-77
2022/11/06 06:52:10;;;;;;;4.63;1.98;;;;;;;;;;5044221;28;20110;-77
2022/11/06 06:54:35;;;;;;;5.55;1.73;;;;;;;;;;5044310;28;20055;-77
2022/11/06 06:57:01;;;;;;;3.20;1.42;;;;;;;;;;5044525;28;20029;-77
2022/11/06 06:59:27;;;;;;;3.63;1.63;;;;;;;;;;5044237;28;20032;-77
2022/11/06 07:01:53;;;;;;;6.13;1.90;;;;;;;;;;5045613;28;20108;-77
2022/11/06 07:04:18;;;;;;;5.20;1.85;;;;;;;;;;5044674;28;20900;-77
2022/11/06 07:06:44;;;;;;;3.22;1.02;;;;;;;;;;5046617;28;20087;-77
2022/11/06 07:09:09;;;;;;;4.47;1.35;;;;;;;;;;5049457;28;20578;-77
2022/11/06 07:11:35;;;;;;;3.42;1.92;;;;;;;;;;5048227;28;20033;-77
2022/11/06 07:14:00;;;;;;;4.25;1.50;;;;;;;;;;5040983;28;20037;-76
2022/11/06 07:16:26;;;;;;;6.70;2.08;;;;;;;;;;5042957;28;20025;-76
2022/11/06 07:18:51;;;;;;;7.25;1.38;;;;;;;;;;5039297;28;20025;-77
2022/11/06 07:21:17;;;;;;;3.80;1.20;;;;;;;;;;5043873;28;20095;-76
2022/11/06 07:23:42;;;;;;;2.20;1.45;;;;;;;;;;5042466;28;20041;-77
2022/11/06 07:26:08;;;;;;;2.83;1.50;;;;;;;;;;5044458;28;20068;-76
2022/11/06 07:28:33;;;;;;;1.67;1.10;;;;;;;;;;5037855;28;20478;-76
2022/11/06 07:31:01;;;;;;;6.18;2.15;;;;;;;;;;5025863;28;20048;-77
2022/11/06 07:33:26;;;;;;;3.33;1.10;;;;;;;;;;5026122;28;20034;-76
2022/11/06 07:35:51;;;;;;;4.93;1.65;;;;;;;;;;5027527;28;20037;-77
2022/11/06 07:38:17;;;;;;;5.32;2.00;;;;;;;;;;5028868;28;20514;-76
2022/11/06 07:40:42;;;;;;;3.38;1.35;;;;;;;;;;5035946;28;20028;-76
2022/11/06 07:43:09;;;;;;;7.40;1.63;;;;;;;;;;5048301;28;20554;-76
2022/11/06 07:45:36;;;;;;;3.70;1.20;;;;;;;;;;5048437;28;20094;-77
2022/11/06 07:48:02;;;;;;;4.82;1.70;;;;;;;;;;5044463;28;20051;-76
2022/11/06 07:50:27;;;;;;;1.58;1.08;;;;;;;;;;5043695;28;20116;-77
2022/11/06 07:52:53;;;;;;;3.50;1.50;;;;;;;;;;5042800;28;20037;-77
2022/11/06 07:55:18;;;;;;;2.75;1.17;;;;;;;;;;5044076;28;20029;-76
2022/11/06 07:57:44;;;;;;;2.88;1.25;;;;;;;;;;5044218;28;20132;-76
2022/11/06 08:00:10;;;;;;;7.95;2.03;;;;;;;;;;5042065;28;20059;-76
2022/11/06 08:02:35;;;;;;;2.28;1.20;;;;;;;;;;5036602;28;20666;-76
2022/11/06 08:05:00;;;;;;;4.13;1.63;;;;;;;;;;5044997;28;20040;-76
2022/11/06 08:07:26;;;;;;;2.97;1.60;;;;;;;;;;5033306;28;20646;-76
2022/11/06 08:09:51;;;;;;;8.82;1.48;;;;;;;;;;5041572;28;20718;-77
2022/11/06 08:12:16;;;;;;;4.97;1.80;;;;;;;;;;5043383;28;20036;-77
2022/11/06 08:14:42;;;;;;;3.22;1.50;;;;;;;;;;5043075;28;20773;-76
2022/11/06 08:17:07;;;;;;;3.58;1.80;;;;;;;;;;5038415;28;20036;-76
2022/11/06 08:19:32;;;;;;;6.07;1.52;;;;;;;;;;5034009;28;20035;-77
2022/11/06 08:21:58;;;;;;;5.65;1.48;;;;;;;;;;5058027;28;20025;-76
2022/11/06 08:24:23;;;;;;;2.85;1.40;;;;;;;;;;5066288;28;20032;-76
2022/11/06 08:26:48;;;;;;;2.22;1.45;;;;;;;;;;5047354;28;20037;-76
2022/11/06 08:29:15;;;;;;;1.95;1.13;;;;;;;;;;5037089;28;20029;-76
2022/11/06 08:31:40;;;;;;;6.22;1.40;;;;;;;;;;5039487;28;20032;-76
2022/11/06 08:34:07;;;;;;;4.47;1.45;;;;;;;;;;5040454;28;20044;-76
2022/11/06 08:36:39;;;;;;;1.77;1.13;;;;;;;;;;5043581;28;20041;-76
2022/11/06 08:39:04;;;;;;;5.85;1.67;;;;;;;;;;5031297;28;20063;-77
2022/11/06 08:41:30;;;;;;;3.50;1.20;;;;;;;;;;5034958;28;20079;-76
2022/11/06 08:43:55;;;;;;;4.57;1.15;;;;;;;;;;5030587;28;20053;-77
2022/11/06 08:46:20;;;;;;;3.58;1.67;;;;;;;;;;5033326;28;20118;-76
2022/11/06 08:48:45;;;;;;;4.20;1.10;;;;;;;;;;5033041;28;20041;-76
2022/11/06 08:51:11;;;;;;;6.95;1.10;;;;;;;;;;5033995;28;20033;-76
2022/11/06 08:53:36;;;;;;;3.67;1.50;;;;;;;;;;5044618;28;20124;-76
2022/11/06 08:56:03;;;;;;;3.28;1.73;;;;;;;;;;5040492;28;20033;-76
2022/11/06 08:58:28;;;;;;;2.63;1.33;;;;;;;;;;5032277;28;20029;-76
2022/11/06 09:00:54;;;;;;;4.50;1.98;;;;;;;;;;5032208;28;20033;-76
2022/11/06 09:03:19;;;;;;;4.25;1.50;;;;;;;;;;5042143;28;20045;-77
2022/11/06 09:05:45;;;;;;;5.95;1.70;;;;;;;;;;5044603;28;20486;-77
2022/11/06 09:08:11;;;;;;;5.47;1.88;;;;;;;;;;5037087;28;20481;-76
2022/11/06 09:10:37;;;;;;;3.63;0.90;;;;;;;;;;5035705;28;20482;-76
2022/11/06 09:13:03;;;;;;;9.13;1.67;;;;;;;;;;5043626;28;20064;-77
2022/11/06 09:15:29;;;;;;;2.30;0.93;;;;;;;;;;5034947;28;20132;-76
2022/11/06 09:17:54;;;;;;;5.75;1.40;;;;;;;;;;5043450;28;20037;-76
2022/11/06 09:20:21;;;;;;;1.48;0.95;;;;;;;;;;5037578;28;20398;-78
2022/11/06 09:22:47;;;;;;;2.33;1.00;;;;;;;;;;5044009;28;20086;-78
2022/11/06 09:25:13;;;;;;;2.65;1.00;;;;;;;;;;5045900;28;20021;-77
2022/11/06 09:27:47;;;;;;;8.88;1.52;;;;;;;;;;5049640;28;20107;-77
2022/11/06 09:30:17;;;;;;;7.25;1.20;;;;;;;;;;5064035;28;20515;-77
2022/11/06 09:32:53;;;;;;;3.55;1.27;;;;;;;;;;5065925;28;20808;-77
2022/11/06 09:35:21;;;;;;;1.75;1.02;;;;;;;;;;5065676;28;20024;-77
2022/11/06 09:37:46;;;;;;;2.55;1.40;;;;;;;;;;5065827;28;20033;-77
2022/11/06 09:40:30;;;;;;;5.80;1.30;;;;;;;;;;5051009;28;20032;-77
2022/11/06 09:43:09;;;;;;;3.67;1.88;;;;;;;;;;5045916;28;20364;-77
2022/11/06 09:45:38;;;;;;;2.72;1.20;;;;;;;;;;5019585;28;20057;-76
2022/11/06 09:48:09;;;;;;;4.88;1.38;;;;;;;;;;5030466;28;20041;-77
2022/11/06 09:50:39;;;;;;;2.88;1.10;;;;;;;;;;5051775;28;20040;-77
2022/11/06 09:53:25;;;;;;;1.05;0.82;;;;;;;;;;5052179;28;20037;-77
2022/11/06 09:55:52;;;;;;;5.07;1.55;;;;;;;;;;5045283;28;20106;-77
2022/11/06 09:58:22;;;;;;;4.85;1.50;;;;;;;;;;5045283;28;20028;-77
2022/11/06 10:00:51;;;;;;;12.13;1.90;;;;;;;;;;5044902;28;20043;-76
2022/11/06 10:03:42;;;;;;;4.15;1.50;;;;;;;;;;5042466;28;20044;-77
2022/11/06 10:06:07;;;;;;;4.82;1.58;;;;;;;;;;5037336;28;20124;-76
2022/11/06 10:08:33;;;;;;;3.47;1.55;;;;;;;;;;5041942;28;20045;-77
2022/11/06 10:11:14;;;;;;;5.80;1.38;;;;;;;;;;5044647;28;20029;-77
2022/11/06 10:13:45;;;;;;;12.25;1.95;;;;;;;;;;5041975;28;20091;-77
2022/11/06 10:16:20;;;;;;;4.30;1.30;;;;;;;;;;5063774;28;20028;-77
2022/11/06 10:18:55;;;;;;;3.45;1.42;;;;;;;;;;5062373;28;20037;-78
2022/11/06 10:21:29;;;;;;;4.07;1.40;;;;;;;;;;5045193;28;20044;-77
2022/11/06 10:23:59;;;;;;;6.10;1.77;;;;;;;;;;5033200;28;20747;-77
2022/11/06 10:26:38;;;;;;;3.00;1.15;;;;;;;;;;5035935;28;20556;-77
2022/11/06 10:29:25;;;;;;;2.05;1.35;;;;;;;;;;5028201;28;20168;-78
2022/11/06 10:32:09;;;;;;;4.80;1.83;;;;;;;;;;5023123;28;20038;-77
2022/11/06 10:34:45;;;;;;;1.95;1.13;;;;;;;;;;5023247;28;20021;-77
2022/11/06 10:37:22;;;;;;;2.65;1.50;;;;;;;;;;5032404;28;20025;-77
2022/11/06 10:39:48;;;;;;;2.20;1.25;;;;;;;;;;5034233;28;20438;-77
2022/11/06 10:42:16;;;;;;;8.93;1.45;;;;;;;;;;5030013;28;20032;-76
2022/11/06 10:44:55;;;;;;;5.85;1.60;;;;;;;;;;5033755;28;20033;-76
2022/11/06 10:47:31;;;;;;;1.33;1.15;;;;;;;;;;5023189;28;20087;-77
2022/11/06 10:49:59;;;;;;;3.90;1.05;;;;;;;;;;5028025;28;20041;-78
2022/11/06 10:52:46;;;;;;;4.30;1.48;;;;;;;;;;5023846;28;20593;-77
2022/11/06 10:55:45;;;;;;;5.20;1.25;;;;;;;;;;5038940;28;20044;-77
2022/11/06 10:58:18;;;;;;;2.38;1.10;;;;;;;;;;5026650;28;20075;-77
2022/11/06 11:00:43;;;;;;;1.73;1.17;;;;;;;;;;5033416;28;20137;-77
2022/11/06 11:03:23;;;;;;;1.67;1.23;;;;;;;;;;5036797;28;20135;-77
2022/11/06 11:05:48;;;;;;;2.30;1.17;;;;;;;;;;5031267;28;20099;-77
2022/11/06 11:08:33;;;;;;;2.00;1.02;;;;;;;;;;5036181;28;20052;-77
2022/11/06 11:11:14;;;;;;;3.30;1.27;;;;;;;;;;5037169;28;20076;-78
2022/11/06 11:13:40;;;;;;;1.05;0.85;;;;;;;;;;5047313;28;20029;-77
2022/11/06 11:16:27;;;;;;;6.45;1.67;;;;;;;;;;5028976;28;20025;-77
2022/11/06 11:18:53;;;;;;;1.92;0.95;;;;;;;;;;5032210;28;20115;-78
2022/11/06 11:21:18;;;;;;;2.42;1.20;;;;;;;;;;5030288;28;20119;-76
2022/11/06 11:24:05;;;;;;;2.75;1.58;;;;;;;;;;5033135;28;20166;-78
2022/11/06 11:26:35;;;;;;;3.38;1.33;;;;;;;;;;5035864;28;20037;-77
2022/11/06 11:29:14;;;;;;;4.40;1.75;;;;;;;;;;5050113;28;20029;-77
2022/11/06 11:31:43;;;;;;;2.38;1.45;;;;;;;;;;5029934;28;20569;-77
2022/11/06 11:34:19;;;;;;;6.78;1.55;;;;;;;;;;5030644;28;20083;-77
2022/11/06 11:37:04;;;;;;;4.45;1.33;;;;;;;;;;5031793;28;20873;-78
2022/11/06 11:39:35;;;;;;;3.33;1.38;;;;;;;;;;5023268;28;20123;-78
2022/11/06 11:42:39;;;;;;;3.78;1.10;;;;;;;;;;5041460;28;20490;-78
2022/11/06 11:45:08;;;;;;;3.85;1.50;;;;;;;;;;5017483;28;20570;-78
2022/11/06 11:47:34;;;;;;;5.20;1.52;;;;;;;;;;5014810;28;20049;-77
2022/11/06 11:50:15;;;;;;;7.93;1.85;;;;;;;;;;5025728;28;20044;-77
2022/11/06 11:52:41;;;;;;;5.10;1.45;;;;;;;;;;5031414;28;20548;-78
2022/11/06 11:55:19;;;;;;;3.95;1.73;;;;;;;;;;5034827;28;20147;-78
2022/11/06 11:57:47;;;;;;;3.30;1.55;;;;;;;;;;5034384;28;20036;-78
2022/11/06 12:00:18;;;;;;;3.30;1.67;;;;;;;;;;5035670;28;20033;-78
2022/11/06 12:02:51;;;;;;;4.07;1.73;;;;;;;;;;5034247;28;20051;-78
2022/11/06 12:05:22;;;;;;;7.45;2.08;;;;;;;;;;5042707;28;20532;-78
2022/11/06 12:07:55;;;;;;;3.15;1.40;;;;;;;;;;5045933;28;20063;-78
2022/11/06 12:10:33;;;;;;;3.60;1.38;;;;;;;;;;5046853;28;20042;-77
2022/11/06 12:13:12;;;;;;;4.00;1.60;;;;;;;;;;5039824;28;20041;-78
2022/11/06 12:15:59;;;;;;;7.72;2.25;;;;;;;;;;5020930;28;20596;-78
2022/11/06 12:18:47;;;;;;;7.15;2.38;;;;;;;;;;5036915;28;20124;-78
2022/11/06 12:21:19;;;;;;;6.10;2.00;;;;;;;;;;5039723;28;20033;-78
2022/11/06 12:23:50;;;;;;;3.27;1.70;;;;;;;;;;5038572;28;20064;-77
2022/11/06 12:26:33;;;;;;;4.10;2.42;;;;;;;;;;5038101;28;20091;-76
2022/11/06 12:29:18;;;;;;;6.03;2.55;;;;;;;;;;5042636;28;20127;-74
2022/11/06 12:31:55;;;;;;;11.88;3.65;;;;;;;;;;5028082;28;20637;-65
2022/11/06 12:34:48;;;;;;;10.60;2.67;;;;;;;;;;5042460;28;20422;-66
2022/11/06 12:37:16;;;;;;;9.35;3.38;;;;;;;;;;5036514;28;20107;-70
2022/11/06 12:39:46;;;;;;;11.82;3.97;;;;;;;;;;5033046;28;20678;-64
2022/11/06 12:42:13;;;;;;;14.07;3.35;;;;;;;;;;5035968;28;20041;-64
2022/11/06 12:44:39;;;;;;;13.48;4.40;;;;;;;;;;5032625;28;20041;-64
2022/11/06 12:47:22;;;;;;;14.10;4.18;;;;;;;;;;5033274;28;20049;-68
2022/11/06 12:50:11;;;;;;;4.85;2.03;;;;;;;;;;5029394;28;20068;-68
2022/11/06 12:52:49;;;;;;;5.65;2.28;;;;;;;;;;5046382;28;20736;-69
2022/11/06 12:55:41;;;;;;;1.67;1.10;;;;;;;;;;5045784;28;20029;-69
2022/11/06 12:58:34;;;;;;;5.88;1.70;;;;;;;;;;5043145;28;20055;-69
2022/11/06 13:01:30;;;;;;;2.25;1.20;;;;;;;;;;5045915;28;20469;-70
2022/11/06 13:03:58;;;;;;;3.83;1.48;;;;;;;;;;5016812;28;20045;-70
2022/11/06 13:06:55;;;;;;;11.45;1.75;;;;;;;;;;5035435;28;20086;-71
2022/11/06 13:09:35;;;;;;;3.40;1.35;;;;;;;;;;5036561;28;20183;-71
2022/11/06 13:12:26;;;;;;;7.10;1.40;;;;;;;;;;5037979;28;20563;-71
2022/11/06 13:15:07;;;;;;;1.55;1.17;;;;;;;;;;5040801;28;20037;-71
2022/11/06 13:17:52;;;;;;;2.25;1.10;;;;;;;;;;5046967;28;20043;-71
2022/11/06 13:20:39;;;;;;;1.60;1.17;;;;;;;;;;5040286;28;20048;-68
2022/11/06 13:23:12;;;;;;;2.22;1.30;;;;;;;;;;5041167;28;20036;-68
2022/11/06 13:25:47;;;;;;;7.88;1.70;;;;;;;;;;5037693;28;20425;-68
2022/11/06 13:28:28;;;;;;;1.85;1.08;;;;;;;;;;5039903;28;20021;-69
2022/11/06 13:30:56;;;;;;;4.88;1.05;;;;;;;;;;5046262;28;20542;-68
2022/11/06 13:33:31;;;;;;;2.35;0.98;;;;;;;;;;5042970;28;20029;-68
2022/11/06 13:35:58;;;;;;;0.98;0.88;;;;;;;;;;5028194;28;20037;-67
2022/11/06 13:38:29;;;;;;;3.58;1.30;;;;;;;;;;5029744;28;20045;-68
2022/11/06 13:41:00;;;;;;;1.60;1.08;;;;;;;;;;5043847;28;20032;-67
2022/11/06 13:43:32;;;;;;;1.38;1.00;;;;;;;;;;5043223;28;20078;-67
2022/11/06 13:46:05;;;;;;;3.67;1.15;;;;;;;;;;5035846;28;20049;-68
2022/11/06 13:48:54;;;;;;;2.55;1.15;;;;;;;;;;5026988;28;20041;-67
2022/11/06 13:51:52;;;;;;;2.67;1.13;;;;;;;;;;5042185;28;20522;-68
2022/11/06 13:54:44;;;;;;;1.95;1.05;;;;;;;;;;5033658;28;20044;-69
2022/11/06 13:57:15;;;;;;;2.90;0.90;;;;;;;;;;5053414;28;20079;-69
2022/11/06 14:00:06;;;;;;;3.25;1.30;;;;;;;;;;5034528;28;20526;-68
2022/11/06 14:02:41;;;;;;;1.33;1.02;;;;;;;;;;5036864;28;20030;-68
2022/11/06 14:05:42;;;;;;;3.75;2.15;;;;;;;;;;5035808;28;20102;-67
2022/11/06 14:08:15;;;;;;;3.38;1.10;;;;;;;;;;5039986;28;20133;-68
2022/11/06 14:10:52;;;;;;;2.20;1.33;;;;;;;;;;5057240;28;20028;-67
2022/11/06 14:13:25;;;;;;;4.60;1.60;;;;;;;;;;5062251;28;20028;-67
2022/11/06 14:16:02;;;;;;;2.63;2.03;;;;;;;;;;5035358;28;20045;-68
2022/11/06 14:18:27;;;;;;;2.90;1.40;;;;;;;;;;5037142;28;20602;-70
2022/11/06 14:21:40;;;;;;;3.15;1.50;;;;;;;;;;5030750;28;20044;-70
2022/11/06 14:24:31;;;;;;;6.25;1.35;;;;;;;;;;5024828;28;20041;-70
2022/11/06 14:26:59;;;;;;;2.20;1.35;;;;;;;;;;5040377;28;20041;-70
2022/11/06 14:29:25;;;;;;;1.98;1.05;;;;;;;;;;5033951;28;20045;-70
2022/11/06 14:32:01;;;;;;;2.70;1.40;;;;;;;;;;5038939;28;20036;-70
2022/11/06 14:34:32;;;;;;;0.90;0.63;;;;;;;;;;5031514;28;20043;-70
2022/11/06 14:36:57;;;;;;;1.60;1.08;;;;;;;;;;5040653;28;20017;-71
2022/11/06 14:39:55;;;;;;;8.70;1.58;;;;;;;;;;5044865;28;20044;-64
2022/11/06 14:42:35;;;;;;;2.13;1.02;;;;;;;;;;5037135;28;21304;-65
2022/11/06 14:45:10;;;;;;;3.08;1.20;;;;;;;;;;5034513;28;20637;-64
2022/11/06 14:47:36;;;;;;;2.17;1.35;;;;;;;;;;5040459;28;20047;-65
2022/11/06 14:50:06;;;;;;;4.68;1.30;;;;;;;;;;5040367;28;20597;-65
2022/11/06 14:52:45;;;;;;;9.05;1.73;;;;;;;;;;5045871;28;20052;-65
2022/11/06 14:55:42;;;;;;;2.13;1.30;;;;;;;;;;5041638;28;20125;-65
2022/11/06 14:58:16;;;;;;;4.35;1.42;;;;;;;;;;5034924;28;20037;-65
2022/11/06 15:00:48;;;;;;;3.15;0.90;;;;;;;;;;5036963;28;20040;-65
2022/11/06 15:03:25;;;;;;;3.00;1.27;;;;;;;;;;5030499;28;20044;-65
2022/11/06 15:05:56;;;;;;;1.40;0.95;;;;;;;;;;5031668;28;20144;-65
2022/11/06 15:08:51;;;;;;;7.03;1.70;;;;;;;;;;5034606;28;20063;-64
2022/11/06 15:11:28;;;;;;;1.45;0.88;;;;;;;;;;5037043;28;20685;-65
2022/11/06 15:13:54;;;;;;;2.25;0.98;;;;;;;;;;5035534;28;20177;-64
2022/11/06 15:16:20;;;;;;;3.38;1.08;;;;;;;;;;5039931;28;20032;-64
2022/11/06 15:18:46;;;;;;;2.08;1.15;;;;;;;;;;5041658;28;20029;-66
2022/11/06 15:21:19;;;;;;;5.03;1.67;;;;;;;;;;5043374;28;20407;-65
2022/11/06 15:24:07;;;;;;;4.35;1.10;;;;;;;;;;5044819;28;20048;-65